createdAt,value
2023-03-31T00:00:43.500Z,12.5
2023-03-31T00:01:58.710Z,12.5
2023-03-31T00:03:14.903Z,12.5
2023-03-31T00:04:16.000Z,12.5
2023-03-31T00:05:47.291Z,12.5
2023-03-31T00:07:03.730Z,12.5
2023-03-31T00:08:19.679Z,12.5
2023-03-31T00:09:36.129Z,12.5
2023-03-31T00:10:36.000Z,12.5
2023-03-31T00:11:53.000Z,12.4
2023-03-31T00:13:08.000Z,12.4
2023-03-31T00:14:37.716Z,12.4
2023-03-31T00:15:39.000Z,12.4
2023-03-31T00:17:10.353Z,12.3
2023-03-31T00:18:12.000Z,12.3
2023-03-31T00:19:42.744Z,12.3
2023-03-31T00:20:58.932Z,12.3
2023-03-31T00:22:15.138Z,12.3
2023-03-31T00:23:16.000Z,12.3
2023-03-31T00:24:47.509Z,12.2
2023-03-31T00:25:49.000Z,12.2
2023-03-31T00:27:05.000Z,12.2
2023-03-31T00:28:21.000Z,12.2
2023-03-31T00:29:52.292Z,12.2
2023-03-31T00:30:54.000Z,12.2
2023-03-31T00:32:23.443Z,12.2
2023-03-31T00:33:39.886Z,12.2
2023-03-31T00:34:41.000Z,12.2
2023-03-31T00:36:12.269Z,12.2
2023-03-31T00:37:28.216Z,12.2
2023-03-31T00:38:30.000Z,12.2
2023-03-31T00:39:59.886Z,12.2
2023-03-31T00:41:00.000Z,12.1
2023-03-31T00:42:30.305Z,12.1
2023-03-31T00:43:45.271Z,12.1
2023-03-31T00:45:01.719Z,12.1
2023-03-31T00:46:17.911Z,12.1
2023-03-31T00:47:33.853Z,12.1
2023-03-31T00:48:50.047Z,12.1
2023-03-31T00:50:06.485Z,12.1
2023-03-31T00:51:22.683Z,12.1
2023-03-31T00:52:38.877Z,12.1
2023-03-31T00:53:40.000Z,12.1
2023-03-31T00:55:11.016Z,12.1
2023-03-31T00:56:27.210Z,12.1
2023-03-31T00:57:43.649Z,12.1
2023-03-31T00:58:59.851Z,12.1
2023-03-31T01:00:15.053Z,12.1
2023-03-31T01:01:31.246Z,12.1
2023-03-31T01:02:47.194Z,12.1
2023-03-31T01:04:03.388Z,12.1
2023-03-31T01:05:19.833Z,12
2023-03-31T01:06:35.775Z,12
2023-03-31T01:07:52.208Z,12.1
2023-03-31T01:08:53.000Z,12
2023-03-31T01:10:22.399Z,12
2023-03-31T01:11:24.000Z,12
2023-03-31T01:12:53.813Z,12
2023-03-31T01:14:09.023Z,12
2023-03-31T01:15:11.000Z,12
2023-03-31T01:16:27.000Z,12
2023-03-31T01:17:57.605Z,12
2023-03-31T01:18:59.000Z,12
2023-03-31T01:20:30.236Z,12
2023-03-31T01:21:46.429Z,12
2023-03-31T01:23:02.379Z,12
2023-03-31T01:24:18.573Z,12
2023-03-31T01:25:35.019Z,12
2023-03-31T01:26:51.200Z,12.1
2023-03-31T01:28:07.403Z,12.1
2023-03-31T01:29:09.000Z,12.1
2023-03-31T01:30:38.806Z,12.1
2023-03-31T01:31:54.997Z,12.1
2023-03-31T01:33:11.188Z,12.1
2023-03-31T01:34:27.139Z,12.2
2023-03-31T01:35:43.333Z,12.2
2023-03-31T01:36:59.775Z,12.2
2023-03-31T01:38:15.970Z,12.3
2023-03-31T01:39:16.000Z,12.3
2023-03-31T01:40:46.397Z,12.3
2023-03-31T01:41:48.000Z,12.4
2023-03-31T01:43:17.564Z,12.4
2023-03-31T01:44:18.000Z,12.4
2023-03-31T01:45:49.216Z,12.4
2023-03-31T01:46:50.000Z,12.4
2023-03-31T01:48:21.356Z,12.4
2023-03-31T01:49:37.550Z,12.4
2023-03-31T01:50:53.743Z,12.5
2023-03-31T01:52:10.189Z,12.5
2023-03-31T01:53:26.130Z,12.5
2023-03-31T01:54:42.324Z,12.5
2023-03-31T01:55:44.000Z,12.6
2023-03-31T01:57:00.000Z,12.6
2023-03-31T01:58:30.906Z,12.6
2023-03-31T01:59:47.100Z,12.6
2023-03-31T02:01:02.310Z,12.7
2023-03-31T02:02:04.000Z,12.7
2023-03-31T02:03:20.000Z,12.7
2023-03-31T02:04:50.890Z,12.7
2023-03-31T02:05:52.000Z,12.6
2023-03-31T02:06:28.000Z,12.7
2023-03-31T02:07:23.278Z,12.6
2023-03-31T02:08:39.732Z,12.6
2023-03-31T02:09:40.000Z,12.6
2023-03-31T02:11:10.154Z,12.6
2023-03-31T02:13:42.532Z,12.6
2023-03-31T02:14:57.509Z,12.6
2023-03-31T02:16:13.703Z,12.6
2023-03-31T02:17:28.912Z,12.6
2023-03-31T02:18:45.107Z,12.5
2023-03-31T02:20:01.301Z,12.5
2023-03-31T02:21:17.494Z,12.6
2023-03-31T02:22:33.937Z,12.6
2023-03-31T02:23:49.882Z,12.6
2023-03-31T02:24:51.000Z,12.6
2023-03-31T02:26:22.269Z,12.6
2023-03-31T02:27:24.000Z,12.6
2023-03-31T02:28:54.656Z,12.5
2023-03-31T02:30:10.850Z,12.5
2023-03-31T02:31:27.043Z,12.5
2023-03-31T02:32:43.237Z,12.5
2023-03-31T02:33:58.690Z,12.5
2023-03-31T02:35:00.000Z,12.5
2023-03-31T02:36:30.835Z,12.5
2023-03-31T02:37:47.029Z,12.5
2023-03-31T02:39:03.474Z,12.5
2023-03-31T02:40:19.416Z,12.5
2023-03-31T02:41:34.636Z,12.5
2023-03-31T02:42:50.093Z,12.4
2023-03-31T02:44:05.067Z,12.4
2023-03-31T02:45:20.277Z,12.4
2023-03-31T02:46:36.471Z,12.4
2023-03-31T02:47:38.000Z,12.4
2023-03-31T02:49:08.858Z,12.4
2023-03-31T02:50:25.052Z,12.4
2023-03-31T02:51:41.246Z,12.4
2023-03-31T02:52:43.000Z,12.4
2023-03-31T02:54:13.633Z,12.4
2023-03-31T02:55:28.848Z,12.4
2023-03-31T02:56:45.042Z,12.4
2023-03-31T02:58:01.491Z,12.4
2023-03-31T02:59:17.429Z,12.4
2023-03-31T03:00:19.000Z,12.4
2023-03-31T03:01:49.816Z,12.4
2023-03-31T03:03:06.259Z,12.4
2023-03-31T03:04:22.204Z,12.4
2023-03-31T03:05:38.397Z,12.4
2023-03-31T03:06:54.591Z,12.4
2023-03-31T03:08:10.785Z,12.4
2023-03-31T03:09:26.978Z,12.4
2023-03-31T03:10:27.000Z,12.4
2023-03-31T03:11:43.000Z,12.4
2023-03-31T03:13:13.850Z,12.4
2023-03-31T03:14:28.822Z,12.4
2023-03-31T03:15:44.287Z,12.4
2023-03-31T03:17:00.479Z,12.3
2023-03-31T03:18:16.663Z,12.3
2023-03-31T03:19:32.613Z,12.4
2023-03-31T03:20:49.067Z,12.4
2023-03-31T03:21:50.000Z,12.4
2023-03-31T03:23:21.194Z,12.4
2023-03-31T03:24:37.637Z,12.4
2023-03-31T03:25:39.000Z,12.4
2023-03-31T03:27:09.775Z,12.4
2023-03-31T03:28:25.969Z,12.4
2023-03-31T03:29:42.162Z,12.4
2023-03-31T03:30:58.356Z,12.4
2023-03-31T03:31:59.000Z,12.4
2023-03-31T03:33:15.000Z,12.4
2023-03-31T03:34:45.955Z,12.4
2023-03-31T03:35:47.000Z,12.4
2023-03-31T03:37:18.345Z,12.4
2023-03-31T03:38:20.000Z,12.4
2023-03-31T03:39:50.985Z,12.4
2023-03-31T03:41:05.956Z,12.4
2023-03-31T03:42:21.168Z,12.4
2023-03-31T03:43:37.616Z,12.4
2023-03-31T03:44:38.000Z,12.4
2023-03-31T03:45:53.000Z,12.4
2023-03-31T03:47:24.240Z,12.4
2023-03-31T03:48:40.437Z,12.4
2023-03-31T03:49:56.633Z,12.4
2023-03-31T03:51:12.830Z,12.4
2023-03-31T03:52:14.000Z,12.3
2023-03-31T03:53:30.000Z,12.4
2023-03-31T03:54:46.000Z,12.4
2023-03-31T03:56:17.600Z,12.4
2023-03-31T03:57:33.553Z,12.4
2023-03-31T03:58:50.001Z,12.5
2023-03-31T04:00:05.944Z,12.5
2023-03-31T04:01:07.000Z,12.5
2023-03-31T04:02:37.595Z,12.5
2023-03-31T04:03:53.787Z,12.5
2023-03-31T04:05:09.742Z,12.5
2023-03-31T04:06:26.194Z,12.5
2023-03-31T04:07:42.376Z,12.5
2023-03-31T04:08:58.328Z,12.4
2023-03-31T04:10:14.524Z,12.4
2023-03-31T04:11:29.988Z,12.5
2023-03-31T04:12:45.206Z,12.5
2023-03-31T04:13:46.000Z,12.4
2023-03-31T04:15:16.619Z,12.4
2023-03-31T04:16:17.000Z,12.4
2023-03-31T04:17:47.782Z,12.4
2023-03-31T04:19:03.977Z,12.4
2023-03-31T04:20:05.000Z,12.4
2023-03-31T04:21:36.613Z,12.3
2023-03-31T04:22:52.564Z,12.4
2023-03-31T04:24:09.012Z,12.4
2023-03-31T04:25:25.219Z,12.3
2023-03-31T04:26:41.402Z,12.2
2023-03-31T04:27:57.347Z,12.2
2023-03-31T04:29:13.542Z,12.2
2023-03-31T04:30:29.738Z,12.2
2023-03-31T04:31:31.000Z,12.2
2023-03-31T04:33:01.400Z,12.2
2023-03-31T04:34:03.000Z,12.2
2023-03-31T04:35:33.536Z,12.2
2023-03-31T04:36:35.000Z,12.2
2023-03-31T04:38:06.171Z,12.2
2023-03-31T04:39:07.000Z,12.1
2023-03-31T04:40:38.565Z,12.1
2023-03-31T04:41:39.000Z,12.1
2023-03-31T04:43:08.751Z,12.1
2023-03-31T04:44:25.195Z,12.1
2023-03-31T04:45:26.000Z,12.1
2023-03-31T04:46:42.000Z,12.1
2023-03-31T04:48:11.575Z,12.1
2023-03-31T04:49:13.000Z,12
2023-03-31T04:50:44.221Z,12.1
2023-03-31T04:51:45.000Z,12
2023-03-31T04:53:02.000Z,12.1
2023-03-31T04:54:18.000Z,12.1
2023-03-31T04:55:48.999Z,12.1
2023-03-31T04:56:50.000Z,12.1
2023-03-31T04:58:21.139Z,12.1
2023-03-31T04:59:37.335Z,12.1
2023-03-31T05:00:53.770Z,12.1
2023-03-31T05:01:55.000Z,12.1
2023-03-31T05:03:26.173Z,12
2023-03-31T05:04:41.384Z,12.1
2023-03-31T05:05:57.329Z,12.1
2023-03-31T05:06:59.000Z,12.1
2023-03-31T05:08:29.720Z,12.1
2023-03-31T05:09:46.167Z,12.1
2023-03-31T05:11:02.366Z,12.1
2023-03-31T05:12:18.553Z,12.1
2023-03-31T05:13:34.503Z,12.1
2023-03-31T05:14:35.000Z,12.2
2023-03-31T05:15:50.000Z,12.2
2023-03-31T05:17:05.000Z,12.3
2023-03-31T05:18:35.619Z,12.3
2023-03-31T05:19:37.000Z,12.3
2023-03-31T05:20:53.000Z,12.3
2023-03-31T05:22:23.955Z,12.2
2023-03-31T05:23:40.151Z,12.3
2023-03-31T05:24:56.585Z,12.3
2023-03-31T05:26:12.791Z,12.3
2023-03-31T05:27:14.000Z,12.3
2023-03-31T05:28:30.000Z,12.3
2023-03-31T05:30:01.129Z,12.3
2023-03-31T05:31:17.325Z,12.4
2023-03-31T05:32:46.315Z,12.5
2023-03-31T05:33:49.971Z,12.5
2023-03-31T05:34:50.000Z,12.6
2023-03-31T05:36:21.370Z,12.6
2023-03-31T05:37:23.000Z,12.6
2023-03-31T05:38:53.767Z,12.6
2023-03-31T05:40:09.710Z,12.5
2023-03-31T05:41:25.906Z,12.5
2023-03-31T05:42:27.000Z,12.5
2023-03-31T05:43:57.325Z,12.5
2023-03-31T05:44:58.000Z,12.6
2023-03-31T05:46:14.000Z,12.5
2023-03-31T05:47:45.176Z,12.6
2023-03-31T05:49:01.380Z,12.5
2023-03-31T05:50:03.000Z,12.5
2023-03-31T05:51:33.515Z,12.5
2023-03-31T05:52:35.000Z,12.5
2023-03-31T05:54:05.906Z,12.4
2023-03-31T05:55:22.102Z,12.4
2023-03-31T05:56:38.298Z,12.4
2023-03-31T05:57:54.742Z,12.4
2023-03-31T05:59:10.689Z,12.4
2023-03-31T06:00:26.884Z,12.4
2023-03-31T06:01:42.096Z,12.4
2023-03-31T06:02:58.531Z,12.4
2023-03-31T06:04:14.749Z,12.4
2023-03-31T06:05:16.000Z,12.3
2023-03-31T06:06:47.123Z,12.4
2023-03-31T06:07:48.000Z,12.3
2023-03-31T06:09:19.525Z,12.3
2023-03-31T06:09:39.000Z,12.4
2023-03-31T06:10:34.743Z,12.4
2023-03-31T06:11:49.958Z,12.3
2023-03-31T06:12:51.000Z,12.3
2023-03-31T06:14:21.367Z,12.3
2023-03-31T06:16:52.529Z,12.4
2023-03-31T06:18:08.983Z,12.4
2023-03-31T06:19:25.163Z,12.4
2023-03-31T06:20:41.363Z,12.4
2023-03-31T06:21:57.311Z,12.5
2023-03-31T06:22:59.000Z,12.5
2023-03-31T06:24:29.702Z,12.6
2023-03-31T06:25:45.897Z,12.6
2023-03-31T06:27:02.093Z,12.6
2023-03-31T06:28:18.536Z,12.7
2023-03-31T06:29:34.485Z,12.7
2023-03-31T06:30:50.680Z,12.7
2023-03-31T06:31:51.000Z,12.7
2023-03-31T06:33:22.088Z,12.7
2023-03-31T06:34:38.528Z,12.8
2023-03-31T06:35:54.735Z,12.8
2023-03-31T06:37:10.675Z,12.8
2023-03-31T06:38:27.119Z,12.8
2023-03-31T06:39:43.066Z,12.7
2023-03-31T06:40:58.531Z,12.6
2023-03-31T06:41:59.000Z,12.6
2023-03-31T06:43:28.720Z,12.7
2023-03-31T06:44:43.932Z,12.7
2023-03-31T06:46:00.128Z,12.7
2023-03-31T06:47:16.324Z,12.7
2023-03-31T06:48:32.766Z,12.8
2023-03-31T06:49:48.715Z,12.8
2023-03-31T06:51:05.156Z,12.9
2023-03-31T06:52:21.106Z,13
2023-03-31T06:53:37.301Z,13
2023-03-31T06:54:53.745Z,13
2023-03-31T06:55:55.000Z,13
2023-03-31T06:57:26.133Z,13.2
2023-03-31T06:58:42.333Z,13.2
2023-03-31T06:59:58.280Z,13.3
2023-03-31T07:00:59.000Z,13.3
2023-03-31T07:02:29.687Z,13.3
2023-03-31T07:03:45.882Z,13.4
2023-03-31T07:05:02.332Z,13.4
2023-03-31T07:06:18.273Z,13.4
2023-03-31T07:07:34.469Z,13.6
2023-03-31T07:08:50.664Z,13.8
2023-03-31T07:10:06.149Z,14.1
2023-03-31T07:11:06.000Z,14.2
2023-03-31T07:12:37.561Z,14.4
2023-03-31T07:13:39.000Z,14.6
2023-03-31T07:15:09.696Z,14.6
2023-03-31T07:16:26.136Z,14.6
2023-03-31T07:17:42.336Z,14.6
2023-03-31T07:18:58.531Z,14.6
2023-03-31T07:20:14.735Z,14.6
2023-03-31T07:21:30.673Z,14.6
2023-03-31T07:22:46.869Z,14.6
2023-03-31T07:23:48.000Z,14.7
2023-03-31T07:25:19.260Z,14.7
2023-03-31T07:26:35.710Z,14.8
2023-03-31T07:27:50.926Z,14.8
2023-03-31T07:28:52.000Z,14.8
2023-03-31T07:30:23.057Z,14.8
2023-03-31T07:31:24.000Z,14.9
2023-03-31T07:32:41.000Z,15
2023-03-31T07:34:11.892Z,15.2
2023-03-31T07:35:28.087Z,15.1
2023-03-31T07:36:28.000Z,15.1
2023-03-31T07:37:58.527Z,15.1
2023-03-31T07:38:59.000Z,15.1
2023-03-31T07:40:28.955Z,15.2
2023-03-31T07:41:44.900Z,15.1
2023-03-31T07:43:01.096Z,15.1
2023-03-31T07:43:24.000Z,15.2
2023-03-31T07:44:03.000Z,15.2
2023-03-31T07:45:33.487Z,15.2
2023-03-31T07:46:49.682Z,15.2
2023-03-31T07:47:13.000Z,15.2
2023-03-31T07:48:05.878Z,15.3
2023-03-31T07:50:38.269Z,15.2
2023-03-31T07:51:40.000Z,15.2
2023-03-31T07:54:26.855Z,15.2
2023-03-31T07:55:43.051Z,15.3
2023-03-31T07:56:58.513Z,15.3
2023-03-31T07:58:14.714Z,15.4
2023-03-31T07:59:30.653Z,15.5
2023-03-31T08:00:47.090Z,15.5
2023-03-31T08:02:03.044Z,15.6
2023-03-31T08:03:19.240Z,15.7
2023-03-31T08:04:49.432Z,15.7
2023-03-31T08:05:51.631Z,15.8
2023-03-31T08:07:07.115Z,16
2023-03-31T08:08:22.065Z,16
2023-03-31T08:09:38.513Z,16.2
2023-03-31T08:10:54.705Z,16.2
2023-03-31T08:12:09.678Z,16.2
2023-03-31T08:13:24.890Z,16.4
2023-03-31T08:14:26.000Z,16.4
2023-03-31T08:15:57.521Z,16.4
2023-03-31T08:17:13.730Z,16.2
2023-03-31T08:18:29.673Z,16.2
2023-03-31T08:19:46.118Z,16.1
2023-03-31T08:21:02.063Z,16.2
2023-03-31T08:22:18.501Z,16.2
2023-03-31T08:23:34.454Z,16.2
2023-03-31T08:24:50.650Z,16.1
2023-03-31T08:25:13.000Z,15.7
2023-03-31T08:26:06.845Z,15.9
2023-03-31T08:27:23.041Z,15.9
2023-03-31T08:28:39.491Z,15.9
2023-03-31T08:29:40.000Z,15.7
2023-03-31T08:32:27.096Z,15.7
2023-03-31T08:33:43.035Z,15.8
2023-03-31T08:34:44.000Z,15.8
2023-03-31T08:36:15.675Z,15.9
2023-03-31T08:37:31.622Z,16
2023-03-31T08:38:46.844Z,16
2023-03-31T08:40:02.056Z,16.1
2023-03-31T08:41:18.252Z,16.3
2023-03-31T08:42:19.000Z,16.3
2023-03-31T08:43:48.686Z,16.3
2023-03-31T08:45:04.881Z,16.4
2023-03-31T08:46:21.077Z,16.6
2023-03-31T08:47:37.522Z,16.7
2023-03-31T08:48:39.000Z,17
2023-03-31T08:50:09.912Z,17
2023-03-31T08:51:25.860Z,17.1
2023-03-31T08:52:27.000Z,17.3
2023-03-31T08:53:58.251Z,17.5
2023-03-31T08:55:14.692Z,17.6
2023-03-31T08:56:30.643Z,17.6
2023-03-31T08:57:46.838Z,17.6
2023-03-31T08:59:03.033Z,17.5
2023-03-31T09:00:18.244Z,17.5
2023-03-31T09:01:34.441Z,17.5
2023-03-31T09:02:50.636Z,17.5
2023-03-31T09:04:06.832Z,17.6
2023-03-31T09:05:23.027Z,17.8
2023-03-31T09:06:39.477Z,17.9
2023-03-31T09:07:55.419Z,17.9
2023-03-31T09:09:10.642Z,18
2023-03-31T09:10:26.099Z,18.1
2023-03-31T09:11:42.049Z,18.1
2023-03-31T09:12:57.536Z,18.2
2023-03-31T09:13:58.000Z,18.4
2023-03-31T09:15:28.932Z,18.4
2023-03-31T09:16:44.874Z,18.5
2023-03-31T09:18:01.069Z,18.5
2023-03-31T09:19:17.522Z,18.5
2023-03-31T09:20:19.000Z,18.4
2023-03-31T09:21:49.904Z,18.3
2023-03-31T09:23:06.106Z,18.2
2023-03-31T09:24:22.300Z,17.9
2023-03-31T09:25:38.243Z,17.7
2023-03-31T09:26:54.698Z,17.6
2023-03-31T09:28:10.882Z,17.6
2023-03-31T09:29:27.082Z,17.5
2023-03-31T09:30:42.041Z,17.7
2023-03-31T09:31:58.237Z,17.8
2023-03-31T09:33:00.000Z,17.7
2023-03-31T09:34:30.880Z,17.7
2023-03-31T09:35:32.000Z,17.8
2023-03-31T09:36:48.000Z,17.9
2023-03-31T09:38:19.463Z,17.8
2023-03-31T09:39:34.437Z,17.8
2023-03-31T09:40:35.000Z,17.8
2023-03-31T09:42:05.844Z,17.8
2023-03-31T09:43:07.000Z,17.8
2023-03-31T09:44:38.236Z,17.6
2023-03-31T09:45:54.431Z,17.4
2023-03-31T09:47:10.879Z,17.5
2023-03-31T09:48:26.822Z,17.6
2023-03-31T09:49:43.018Z,17.5
2023-03-31T09:50:44.000Z,17.4
2023-03-31T09:52:15.656Z,17.4
2023-03-31T09:53:31.604Z,17.4
2023-03-31T09:54:47.800Z,17.2
2023-03-31T09:56:03.995Z,17.2
2023-03-31T09:57:20.434Z,17.3
2023-03-31T09:58:35.657Z,17.4
2023-03-31T09:59:51.598Z,17.6
2023-03-31T10:01:08.040Z,17.8
2023-03-31T10:02:23.989Z,18
2023-03-31T10:02:46.000Z,17.5
2023-03-31T10:03:25.000Z,18.1
2023-03-31T10:04:56.380Z,17.8
2023-03-31T10:06:12.822Z,17.4
2023-03-31T10:07:29.024Z,17.4
2023-03-31T10:09:59.205Z,17.4
2023-03-31T10:11:14.672Z,17.5
2023-03-31T10:12:30.623Z,17.4
2023-03-31T10:13:45.834Z,17.4
2023-03-31T10:14:47.000Z,17.2
2023-03-31T10:16:18.225Z,17.1
2023-03-31T10:17:34.677Z,17
2023-03-31T10:18:50.616Z,16.9
2023-03-31T10:19:52.000Z,16.8
2023-03-31T10:21:23.263Z,16.7
2023-03-31T10:22:24.000Z,16.4
2023-03-31T10:23:55.398Z,16.2
2023-03-31T10:25:11.594Z,16.1
2023-03-31T10:26:13.000Z,16.3
2023-03-31T10:27:44.232Z,16.4
2023-03-31T10:29:00.180Z,16.4
2023-03-31T10:30:15.393Z,16.4
2023-03-31T10:31:31.588Z,16.4
2023-03-31T10:32:47.785Z,16.3
2023-03-31T10:34:03.980Z,16.3
2023-03-31T10:35:20.429Z,16.3
2023-03-31T10:35:41.000Z,16.5
2023-03-31T10:36:50.569Z,16.2
2023-03-31T10:37:51.594Z,16.2
2023-03-31T10:39:06.805Z,16.3
2023-03-31T10:40:23.249Z,16.4
2023-03-31T10:42:54.419Z,16.7
2023-03-31T10:43:55.000Z,16.7
2023-03-31T10:45:25.826Z,16.6
2023-03-31T10:47:01.167Z,16.5
2023-03-31T10:47:58.459Z,16.5
2023-03-31T10:49:14.413Z,16.7
2023-03-31T10:50:30.859Z,17.1
2023-03-31T10:51:46.806Z,17.5
2023-03-31T10:53:03.003Z,17.5
2023-03-31T10:53:26.000Z,17.5
2023-03-31T10:54:19.198Z,18.1
2023-03-31T10:55:35.654Z,18.3
2023-03-31T10:56:51.590Z,18.2
2023-03-31T10:57:53.000Z,17.9
2023-03-31T11:00:39.194Z,17.4
2023-03-31T11:01:55.638Z,17.3
2023-03-31T11:03:11.829Z,17.1
2023-03-31T11:04:27.780Z,16.9
2023-03-31T11:05:43.976Z,16.9
2023-03-31T11:06:45.000Z,17
2023-03-31T11:08:16.617Z,16.7
2023-03-31T11:09:31.589Z,16.6
2023-03-31T11:10:47.057Z,16.5
2023-03-31T11:11:48.000Z,16.4
2023-03-31T11:13:18.464Z,16.2
2023-03-31T11:14:33.430Z,16.1
2023-03-31T11:15:49.627Z,16.1
2023-03-31T11:17:05.822Z,16.2
2023-03-31T11:18:22.019Z,16.4
2023-03-31T11:19:38.214Z,16.6
2023-03-31T11:20:54.664Z,16.8
2023-03-31T11:22:10.605Z,16.9
2023-03-31T11:23:27.052Z,16.8
2023-03-31T11:24:42.018Z,16.9
2023-03-31T11:25:58.214Z,16.9
2023-03-31T11:27:14.409Z,16.8
2023-03-31T11:28:30.606Z,16.9
2023-03-31T11:29:46.801Z,17.1
2023-03-31T11:30:48.000Z,17.3
2023-03-31T11:32:19.435Z,17.4
2023-03-31T11:33:35.388Z,17.4
2023-03-31T11:34:51.584Z,17.4
2023-03-31T11:36:07.779Z,17.4
2023-03-31T11:37:23.975Z,17.5
2023-03-31T11:38:40.435Z,17.6
2023-03-31T11:39:55.394Z,17.7
2023-03-31T11:41:10.605Z,17.7
2023-03-31T11:42:26.801Z,17.6
2023-03-31T11:43:42.997Z,17.4
2023-03-31T11:44:58.219Z,17.3
2023-03-31T11:46:13.673Z,17.2
2023-03-31T11:47:29.626Z,17.2
2023-03-31T11:48:45.822Z,17.2
2023-03-31T11:50:02.017Z,17.2
2023-03-31T11:51:18.213Z,17.1
2023-03-31T11:52:34.408Z,16.9
2023-03-31T11:53:50.857Z,16.8
2023-03-31T11:55:06.800Z,16.9
2023-03-31T11:55:30.000Z,15.3
2023-03-31T11:56:23.247Z,16.6
2023-03-31T11:57:39.191Z,16.3
2023-03-31T11:58:41.000Z,15.9
2023-03-31T12:00:08.000Z,15.5
2023-03-31T12:02:42.990Z,15.2
2023-03-31T12:03:59.186Z,15
2023-03-31T12:05:15.381Z,15
2023-03-31T12:06:17.000Z,14.9
2023-03-31T12:07:48.023Z,14.7
2023-03-31T12:09:03.968Z,14.6
2023-03-31T12:10:20.163Z,14.7
2023-03-31T12:11:35.386Z,14.8
2023-03-31T12:12:50.597Z,15
2023-03-31T12:14:07.042Z,15.2
2023-03-31T12:15:08.000Z,15.2
2023-03-31T12:16:39.434Z,15.3
2023-03-31T12:17:55.380Z,15.4
2023-03-31T12:19:11.576Z,15.5
2023-03-31T12:20:27.771Z,15.7
2023-03-31T12:21:43.967Z,15.8
2023-03-31T12:22:45.000Z,15.8
2023-03-31T12:24:16.357Z,16
2023-03-31T12:25:32.800Z,16.2
2023-03-31T12:26:49.000Z,16.3
2023-03-31T12:27:11.000Z,16.3
2023-03-31T12:28:04.943Z,16.4
2023-03-31T12:29:05.000Z,16.3
2023-03-31T12:30:22.000Z,16.3
2023-03-31T12:31:52.548Z,16.3
2023-03-31T12:34:10.000Z,16.2
2023-03-31T12:35:41.382Z,16.3
2023-03-31T12:36:43.000Z,16.3
2023-03-31T12:38:12.795Z,16.5
2023-03-31T12:39:28.012Z,16.6
2023-03-31T12:40:28.000Z,16.6
2023-03-31T12:41:58.198Z,16.8
2023-03-31T12:43:14.633Z,16.9
2023-03-31T12:44:15.000Z,17
2023-03-31T12:45:44.827Z,17.1
2023-03-31T12:47:01.023Z,17.3
2023-03-31T12:48:17.465Z,17.4
2023-03-31T12:49:33.666Z,17.5
2023-03-31T12:50:49.874Z,17.7
2023-03-31T12:52:06.056Z,17.8
2023-03-31T12:53:07.000Z,18
2023-03-31T12:54:38.457Z,18
2023-03-31T12:55:40.000Z,18.2
2023-03-31T12:57:10.841Z,18.3
2023-03-31T12:58:26.786Z,18.4
2023-03-31T12:59:28.000Z,18.6
2023-03-31T13:00:59.179Z,18.7
2023-03-31T13:02:14.642Z,18.8
2023-03-31T13:03:30.835Z,18.8
2023-03-31T13:04:47.046Z,18.8
2023-03-31T13:06:03.224Z,18.9
2023-03-31T13:07:19.170Z,18.8
2023-03-31T13:08:35.620Z,18.6
2023-03-31T13:09:51.809Z,18.4
2023-03-31T13:11:06.777Z,18.2
2023-03-31T13:12:22.235Z,18.1
2023-03-31T13:13:38.430Z,17.8
2023-03-31T13:14:53.654Z,17.5
2023-03-31T13:15:54.000Z,17.2
2023-03-31T13:17:25.057Z,17.2
2023-03-31T13:17:48.000Z,17.1
2023-03-31T13:18:40.998Z,17.1
2023-03-31T13:19:57.191Z,17.1
2023-03-31T13:21:13.385Z,17.1
2023-03-31T13:22:15.000Z,17.1
2023-03-31T13:25:01.965Z,17.2
2023-03-31T13:25:25.000Z,17.2
2023-03-31T13:26:18.410Z,17.3
2023-03-31T13:27:34.353Z,17.2
2023-03-31T13:28:36.000Z,17.4
2023-03-31T13:30:06.991Z,17.2
2023-03-31T13:32:23.000Z,17.1
2023-03-31T13:33:39.000Z,17.1
2023-03-31T13:35:10.532Z,17.2
2023-03-31T13:36:12.000Z,17.2
2023-03-31T13:37:28.000Z,17.2
2023-03-31T13:39:10.252Z,17.3
2023-03-31T13:40:15.306Z,17.3
2023-03-31T13:42:12.655Z,17.2
2023-03-31T13:42:45.982Z,17.3
2023-03-31T13:44:15.042Z,17.5
2023-03-31T13:45:17.150Z,17.5
2023-03-31T13:46:32.359Z,17.4
2023-03-31T13:47:48.553Z,17.5
2023-03-31T13:49:04.747Z,17.6
2023-03-31T13:50:06.000Z,17.6
2023-03-31T13:51:22.000Z,17.5
2023-03-31T13:52:53.328Z,17.5
2023-03-31T13:54:09.522Z,17.5
2023-03-31T13:55:25.715Z,17.5
2023-03-31T13:56:27.000Z,17.5
2023-03-31T13:57:58.382Z,17.5
2023-03-31T13:59:14.296Z,17.6
2023-03-31T14:00:30.742Z,17.7
2023-03-31T14:01:32.000Z,17.8
2023-03-31T14:03:02.140Z,17.6
2023-03-31T14:04:18.326Z,17.6
2023-03-31T14:05:34.529Z,17.6
2023-03-31T14:06:36.000Z,17.8
2023-03-31T14:08:06.668Z,17.7
2023-03-31T14:09:22.861Z,17.5
2023-03-31T14:09:44.000Z,16.7
2023-03-31T14:10:39.055Z,17.3
2023-03-31T14:11:54.274Z,17.1
2023-03-31T14:13:09.751Z,17.1
2023-03-31T14:14:25.679Z,16.9
2023-03-31T14:16:57.342Z,16.6
2023-03-31T14:18:12.547Z,16.5
2023-03-31T14:19:14.000Z,16.4
2023-03-31T14:20:44.688Z,16.5
2023-03-31T14:22:00.882Z,16.4
2023-03-31T14:23:17.320Z,16.4
2023-03-31T14:25:18.170Z,16.4
2023-03-31T14:25:49.462Z,16.6
2023-03-31T14:27:05.656Z,16.8
2023-03-31T14:28:21.849Z,16.9
2023-03-31T14:29:38.043Z,17
2023-03-31T14:30:54.476Z,17.1
2023-03-31T14:32:10.676Z,17.2
2023-03-31T14:33:26.623Z,17.1
2023-03-31T14:34:41.833Z,17.1
2023-03-31T14:35:58.026Z,17.1
2023-03-31T14:36:59.000Z,17
2023-03-31T14:38:30.414Z,17.1
2023-03-31T14:39:46.608Z,17.1
2023-03-31T14:41:02.801Z,17.2
2023-03-31T14:42:04.000Z,17.2
2023-03-31T14:43:34.215Z,17.1
2023-03-31T14:44:49.425Z,17.1
2023-03-31T14:46:04.901Z,17.1
2023-03-31T14:47:19.855Z,17.2
2023-03-31T14:48:36.048Z,17.1
2023-03-31T14:49:56.006Z,17.1
2023-03-31T14:51:08.435Z,17.1
2023-03-31T14:52:24.629Z,17
2023-03-31T14:53:40.823Z,17.1
2023-03-31T14:54:04.000Z,17
2023-03-31T14:54:57.262Z,17.1
2023-03-31T14:56:13.210Z,17.1
2023-03-31T14:57:15.000Z,16.9
2023-03-31T14:58:45.842Z,17
2023-03-31T15:01:03.000Z,17.1
2023-03-31T15:03:19.879Z,17
2023-03-31T15:03:50.372Z,17
2023-03-31T15:05:05.582Z,17
2023-03-31T15:06:21.775Z,17
2023-03-31T15:07:38.236Z,17
2023-03-31T15:08:39.000Z,16.9
2023-03-31T15:10:10.609Z,16.9
2023-03-31T15:11:26.549Z,16.9
2023-03-31T15:12:42.018Z,17
2023-03-31T15:13:58.203Z,17.1
2023-03-31T15:15:34.000Z,16.8
2023-03-31T15:15:37.803Z,17
2023-03-31T15:16:29.616Z,16.9
2023-03-31T15:17:44.585Z,16.9
2023-03-31T15:19:00.055Z,16.8
2023-03-31T15:20:16.236Z,16.8
2023-03-31T15:20:39.000Z,16.6
2023-03-31T15:22:48.626Z,16.8
2023-03-31T15:24:04.813Z,16.7
2023-03-31T15:25:21.014Z,16.7
2023-03-31T15:27:53.150Z,16.7
2023-03-31T15:29:09.344Z,16.7
2023-03-31T15:30:25.791Z,16.6
2023-03-31T15:31:41.730Z,16.5
2023-03-31T15:32:04.000Z,16.4
2023-03-31T15:32:43.000Z,16.5
2023-03-31T15:34:14.117Z,16.5
2023-03-31T15:35:29.327Z,16.3
2023-03-31T15:36:45.521Z,16.4
2023-03-31T15:39:18.161Z,16.1
2023-03-31T15:40:33.122Z,16.1
2023-03-31T15:41:49.564Z,16.2
2023-03-31T15:42:51.000Z,16
2023-03-31T15:44:21.703Z,16.1
2023-03-31T15:45:37.169Z,16.2
2023-03-31T15:46:52.133Z,16.2
2023-03-31T15:48:08.576Z,16
2023-03-31T15:49:24.519Z,16
2023-03-31T15:50:40.967Z,15.9
2023-03-31T15:51:42.000Z,15.8
2023-03-31T15:52:58.000Z,15.8
2023-03-31T15:54:14.000Z,15.8
2023-03-31T15:55:45.740Z,15.8
2023-03-31T15:57:01.680Z,15.7
2023-03-31T15:58:46.279Z,15.7
2023-03-31T15:59:34.313Z,15.8
2023-03-31T16:00:50.260Z,15.8
2023-03-31T16:02:06.454Z,15.7
2023-03-31T16:03:21.663Z,15.7
2023-03-31T16:04:37.857Z,15.8
2023-03-31T16:05:54.051Z,15.7
2023-03-31T16:06:55.000Z,15.6
2023-03-31T16:08:26.438Z,15.5
2023-03-31T16:09:28.000Z,15.6
2023-03-31T16:10:58.825Z,15.6
2023-03-31T16:12:14.311Z,15.5
2023-03-31T16:13:29.509Z,15.5
2023-03-31T16:14:44.476Z,15.5
2023-03-31T16:15:06.000Z,15.6
2023-03-31T16:15:45.000Z,15.5
2023-03-31T16:17:16.135Z,15.6
2023-03-31T16:18:17.000Z,15.6
2023-03-31T16:19:48.523Z,15.5
2023-03-31T16:22:20.913Z,15.5
2023-03-31T16:23:22.000Z,15.5
2023-03-31T16:24:53.293Z,15.5
2023-03-31T16:25:16.000Z,15.7
2023-03-31T16:25:54.000Z,15.6
2023-03-31T16:27:25.428Z,15.7
2023-03-31T16:28:41.622Z,15.7
2023-03-31T16:29:43.000Z,15.7
2023-03-31T16:32:30.203Z,15.6
2023-03-31T16:33:45.413Z,15.4
2023-03-31T16:35:01.606Z,15.4
2023-03-31T16:36:03.000Z,15.3
2023-03-31T16:37:34.237Z,15.4
2023-03-31T16:38:50.187Z,15.5
2023-03-31T16:40:06.638Z,15.5
2023-03-31T16:41:21.857Z,15.6
2023-03-31T16:42:37.793Z,15.4
2023-03-31T16:43:38.000Z,15.4
2023-03-31T16:45:08.476Z,15.4
2023-03-31T16:46:10.000Z,15.4
2023-03-31T16:47:40.868Z,15.4
2023-03-31T16:49:01.966Z,15.3
2023-03-31T16:50:12.024Z,15.2
2023-03-31T16:51:27.233Z,15.3
2023-03-31T16:52:43.680Z,15.2
2023-03-31T16:53:45.000Z,15.3
2023-03-31T16:55:41.918Z,15.3
2023-03-31T16:57:14.106Z,15.3